sensor_id;sensor_type;location;lat;lon;timestamp;temperature;humidity
35127;DHT22;21300;52.006;5.798;2022-12-10T00:01:48;0.80;97.90
35127;DHT22;21300;52.006;5.798;2022-12-10T00:04:14;0.80;97.90
35127;DHT22;21300;52.006;5.798;2022-12-10T00:06:41;0.70;97.90
35127;DHT22;21300;52.006;5.798;2022-12-10T00:09:12;0.70;97.90
35127;DHT22;21300;52.006;5.798;2022-12-10T00:11:39;0.70;97.90
35127;DHT22;21300;52.006;5.798;2022-12-10T00:14:05;0.70;97.90
35127;DHT22;21300;52.006;5.798;2022-12-10T00:16:34;0.70;97.90
35127;DHT22;21300;52.006;5.798;2022-12-10T00:19:00;0.70;97.90
35127;DHT22;21300;52.006;5.798;2022-12-10T00:21:29;0.70;97.90
35127;DHT22;21300;52.006;5.798;2022-12-10T00:23:56;0.70;97.90
35127;DHT22;21300;52.006;5.798;2022-12-10T00:26:24;0.70;97.90
35127;DHT22;21300;52.006;5.798;2022-12-10T00:28:50;0.70;97.90
35127;DHT22;21300;52.006;5.798;2022-12-10T00:31:22;0.60;97.90
35127;DHT22;21300;52.006;5.798;2022-12-10T00:33:47;0.70;97.90
35127;DHT22;21300;52.006;5.798;2022-12-10T00:36:28;0.60;97.90
35127;DHT22;21300;52.006;5.798;2022-12-10T00:38:55;0.70;97.90
35127;DHT22;21300;52.006;5.798;2022-12-10T00:41:21;0.70;97.90
35127;DHT22;21300;52.006;5.798;2022-12-10T00:43:47;0.60;97.90
35127;DHT22;21300;52.006;5.798;2022-12-10T00:46:14;0.60;97.90
35127;DHT22;21300;52.006;5.798;2022-12-10T00:48:40;0.60;97.90
35127;DHT22;21300;52.006;5.798;2022-12-10T00:51:18;0.60;97.90
35127;DHT22;21300;52.006;5.798;2022-12-10T00:53:45;0.60;97.90
35127;DHT22;21300;52.006;5.798;2022-12-10T00:56:13;0.60;97.90
35127;DHT22;21300;52.006;5.798;2022-12-10T00:58:40;0.60;98.00
35127;DHT22;21300;52.006;5.798;2022-12-10T01:01:30;0.60;97.90
35127;DHT22;21300;52.006;5.798;2022-12-10T01:04:00;0.60;97.90
35127;DHT22;21300;52.006;5.798;2022-12-10T01:06:29;0.60;97.90
35127;DHT22;21300;52.006;5.798;2022-12-10T01:08:58;0.60;97.90
35127;DHT22;21300;52.006;5.798;2022-12-10T01:11:26;0.50;97.90
35127;DHT22;21300;52.006;5.798;2022-12-10T01:13:53;0.50;97.90
35127;DHT22;21300;52.006;5.798;2022-12-10T01:16:20;0.50;97.90
35127;DHT22;21300;52.006;5.798;2022-12-10T01:18:46;0.50;97.90
35127;DHT22;21300;52.006;5.798;2022-12-10T01:21:18;0.50;97.90
35127;DHT22;21300;52.006;5.798;2022-12-10T01:23:46;0.60;97.90
35127;DHT22;21300;52.006;5.798;2022-12-10T01:26:18;0.50;97.90
35127;DHT22;21300;52.006;5.798;2022-12-10T01:28:44;0.50;97.90
35127;DHT22;21300;52.006;5.798;2022-12-10T01:31:21;0.50;97.90
35127;DHT22;21300;52.006;5.798;2022-12-10T01:33:47;0.50;97.90
35127;DHT22;21300;52.006;5.798;2022-12-10T01:36:18;0.50;97.90
35127;DHT22;21300;52.006;5.798;2022-12-10T01:38:45;0.50;97.90
35127;DHT22;21300;52.006;5.798;2022-12-10T01:41:29;0.50;97.90
35127;DHT22;21300;52.006;5.798;2022-12-10T01:43:58;0.50;97.90
35127;DHT22;21300;52.006;5.798;2022-12-10T01:46:28;0.40;97.90
35127;DHT22;21300;52.006;5.798;2022-12-10T01:48:54;0.40;97.90
35127;DHT22;21300;52.006;5.798;2022-12-10T01:51:20;0.40;97.90
35127;DHT22;21300;52.006;5.798;2022-12-10T01:53:47;0.40;97.90
35127;DHT22;21300;52.006;5.798;2022-12-10T01:56:16;0.40;97.90
35127;DHT22;21300;52.006;5.798;2022-12-10T01:58:42;0.40;97.90
35127;DHT22;21300;52.006;5.798;2022-12-10T02:01:35;0.40;97.90
35127;DHT22;21300;52.006;5.798;2022-12-10T02:09:47;0.40;97.80
35127;DHT22;21300;52.006;5.798;2022-12-10T02:14:55;0.40;97.90
35127;DHT22;21300;52.006;5.798;2022-12-10T02:17:37;0.40;97.90
35127;DHT22;21300;52.006;5.798;2022-12-10T02:25:39;0.30;97.80
35127;DHT22;21300;52.006;5.798;2022-12-10T02:28:10;0.30;97.80
35127;DHT22;21300;52.006;5.798;2022-12-10T02:30:39;0.30;97.80
35127;DHT22;21300;52.006;5.798;2022-12-10T02:33:07;0.30;97.80
35127;DHT22;21300;52.006;5.798;2022-12-10T02:35:35;0.30;97.80
35127;DHT22;21300;52.006;5.798;2022-12-10T02:38:26;0.30;97.80
35127;DHT22;21300;52.006;5.798;2022-12-10T02:40:57;0.30;97.80
35127;DHT22;21300;52.006;5.798;2022-12-10T02:43:23;0.30;97.80
35127;DHT22;21300;52.006;5.798;2022-12-10T02:45:50;0.30;97.80
35127;DHT22;21300;52.006;5.798;2022-12-10T02:48:17;0.30;97.80
35127;DHT22;21300;52.006;5.798;2022-12-10T02:50:43;0.20;97.80
35127;DHT22;21300;52.006;5.798;2022-12-10T02:53:09;0.30;97.80
35127;DHT22;21300;52.006;5.798;2022-12-10T02:58:51;0.20;97.80
35127;DHT22;21300;52.006;5.798;2022-12-10T03:02:22;0.20;97.80
35127;DHT22;21300;52.006;5.798;2022-12-10T03:07:12;0.20;97.80
35127;DHT22;21300;52.006;5.798;2022-12-10T03:09:53;0.20;97.80
35127;DHT22;21300;52.006;5.798;2022-12-10T03:12:23;0.20;97.80
35127;DHT22;21300;52.006;5.798;2022-12-10T03:14:53;0.20;97.80
35127;DHT22;21300;52.006;5.798;2022-12-10T03:17:21;0.20;97.80
35127;DHT22;21300;52.006;5.798;2022-12-10T03:19:50;0.20;97.80
35127;DHT22;21300;52.006;5.798;2022-12-10T03:22:18;0.10;97.80
35127;DHT22;21300;52.006;5.798;2022-12-10T03:24:44;0.20;97.80
35127;DHT22;21300;52.006;5.798;2022-12-10T03:27:12;0.20;97.80
35127;DHT22;21300;52.006;5.798;2022-12-10T03:29:57;0.20;97.80
35127;DHT22;21300;52.006;5.798;2022-12-10T03:32:24;0.10;97.80
35127;DHT22;21300;52.006;5.798;2022-12-10T03:34:53;0.10;97.80
35127;DHT22;21300;52.006;5.798;2022-12-10T03:37:20;0.10;97.80
35127;DHT22;21300;52.006;5.798;2022-12-10T03:39:46;0.10;97.80
35127;DHT22;21300;52.006;5.798;2022-12-10T03:42:12;0.10;97.80
35127;DHT22;21300;52.006;5.798;2022-12-10T03:44:38;0.10;97.80
35127;DHT22;21300;52.006;5.798;2022-12-10T03:47:07;0.10;97.80
35127;DHT22;21300;52.006;5.798;2022-12-10T03:49:34;0.10;97.80
35127;DHT22;21300;52.006;5.798;2022-12-10T03:51:59;0.10;97.80
35127;DHT22;21300;52.006;5.798;2022-12-10T03:54:25;0.10;97.80
35127;DHT22;21300;52.006;5.798;2022-12-10T03:56:51;0.10;97.80
35127;DHT22;21300;52.006;5.798;2022-12-10T03:59:17;0.10;97.80
35127;DHT22;21300;52.006;5.798;2022-12-10T04:01:43;0.10;97.80
35127;DHT22;21300;52.006;5.798;2022-12-10T04:04:09;0.10;97.80
35127;DHT22;21300;52.006;5.798;2022-12-10T04:06:37;0.10;97.80
35127;DHT22;21300;52.006;5.798;2022-12-10T04:09:03;0.00;97.70
35127;DHT22;21300;52.006;5.798;2022-12-10T04:11:29;0.10;97.80
35127;DHT22;21300;52.006;5.798;2022-12-10T04:13:54;0.00;97.80
35127;DHT22;21300;52.006;5.798;2022-12-10T04:16:39;0.00;97.70
35127;DHT22;21300;52.006;5.798;2022-12-10T04:19:09;0.00;97.80
35127;DHT22;21300;52.006;5.798;2022-12-10T04:21:37;0.00;97.80
35127;DHT22;21300;52.006;5.798;2022-12-10T04:24:24;0.00;97.80
35127;DHT22;21300;52.006;5.798;2022-12-10T04:27:18;0.00;97.80
35127;DHT22;21300;52.006;5.798;2022-12-10T04:29:44;0.00;97.80
35127;DHT22;21300;52.006;5.798;2022-12-10T04:32:09;0.00;97.80
35127;DHT22;21300;52.006;5.798;2022-12-10T04:34:35;0.00;97.80
35127;DHT22;21300;52.006;5.798;2022-12-10T04:37:02;0.00;97.80
35127;DHT22;21300;52.006;5.798;2022-12-10T04:39:27;0.00;97.80
35127;DHT22;21300;52.006;5.798;2022-12-10T04:41:53;0.00;97.80
35127;DHT22;21300;52.006;5.798;2022-12-10T04:44:19;0.00;97.80
35127;DHT22;21300;52.006;5.798;2022-12-10T04:46:45;0.00;97.80
35127;DHT22;21300;52.006;5.798;2022-12-10T04:49:11;0.00;97.80
35127;DHT22;21300;52.006;5.798;2022-12-10T04:51:37;0.00;97.80
35127;DHT22;21300;52.006;5.798;2022-12-10T04:54:04;0.00;97.80
35127;DHT22;21300;52.006;5.798;2022-12-10T04:56:29;0.00;97.80
35127;DHT22;21300;52.006;5.798;2022-12-10T04:58:59;0.10;97.90
35127;DHT22;21300;52.006;5.798;2022-12-10T05:01:25;0.10;97.80
35127;DHT22;21300;52.006;5.798;2022-12-10T05:03:51;0.00;97.80
35127;DHT22;21300;52.006;5.798;2022-12-10T05:06:17;0.00;97.80
35127;DHT22;21300;52.006;5.798;2022-12-10T05:08:44;0.10;97.90
35127;DHT22;21300;52.006;5.798;2022-12-10T05:11:18;0.10;97.90
35127;DHT22;21300;52.006;5.798;2022-12-10T05:13:44;0.00;97.80
35127;DHT22;21300;52.006;5.798;2022-12-10T05:16:16;0.10;97.90
35127;DHT22;21300;52.006;5.798;2022-12-10T05:18:43;0.00;97.80
35127;DHT22;21300;52.006;5.798;2022-12-10T05:21:11;0.10;97.90
35127;DHT22;21300;52.006;5.798;2022-12-10T05:23:40;0.00;97.80
35127;DHT22;21300;52.006;5.798;2022-12-10T05:26:08;0.10;97.90
35127;DHT22;21300;52.006;5.798;2022-12-10T05:28:39;0.10;97.90
35127;DHT22;21300;52.006;5.798;2022-12-10T05:31:05;0.10;97.90
35127;DHT22;21300;52.006;5.798;2022-12-10T05:33:36;0.10;97.90
35127;DHT22;21300;52.006;5.798;2022-12-10T05:36:03;0.10;97.90
35127;DHT22;21300;52.006;5.798;2022-12-10T05:38:31;0.10;97.90
35127;DHT22;21300;52.006;5.798;2022-12-10T05:41:04;0.10;97.90
35127;DHT22;21300;52.006;5.798;2022-12-10T05:43:31;0.10;97.90
35127;DHT22;21300;52.006;5.798;2022-12-10T05:46:01;0.00;97.90
35127;DHT22;21300;52.006;5.798;2022-12-10T05:48:27;0.10;97.90
35127;DHT22;21300;52.006;5.798;2022-12-10T05:50:53;0.10;97.90
35127;DHT22;21300;52.006;5.798;2022-12-10T05:53:18;0.10;97.90
35127;DHT22;21300;52.006;5.798;2022-12-10T05:55:44;0.10;97.90
35127;DHT22;21300;52.006;5.798;2022-12-10T05:58:10;0.00;97.90
35127;DHT22;21300;52.006;5.798;2022-12-10T06:00:38;0.10;97.90
35127;DHT22;21300;52.006;5.798;2022-12-10T06:03:04;0.10;97.90
35127;DHT22;21300;52.006;5.798;2022-12-10T06:05:36;0.10;98.10
35127;DHT22;21300;52.006;5.798;2022-12-10T06:08:02;0.10;97.90
35127;DHT22;21300;52.006;5.798;2022-12-10T06:10:27;0.10;97.90
35127;DHT22;21300;52.006;5.798;2022-12-10T06:12:53;0.10;97.90
35127;DHT22;21300;52.006;5.798;2022-12-10T06:15:19;0.10;97.90
35127;DHT22;21300;52.006;5.798;2022-12-10T06:17:44;0.10;97.90
35127;DHT22;21300;52.006;5.798;2022-12-10T06:20:10;0.10;97.90
35127;DHT22;21300;52.006;5.798;2022-12-10T06:22:37;0.10;97.90
35127;DHT22;21300;52.006;5.798;2022-12-10T06:25:07;0.10;97.90
35127;DHT22;21300;52.006;5.798;2022-12-10T06:27:33;0.10;97.90
35127;DHT22;21300;52.006;5.798;2022-12-10T06:29:59;0.10;97.90
35127;DHT22;21300;52.006;5.798;2022-12-10T06:32:24;0.10;97.90
35127;DHT22;21300;52.006;5.798;2022-12-10T06:34:50;0.10;97.90
35127;DHT22;21300;52.006;5.798;2022-12-10T06:37:16;0.10;97.90
35127;DHT22;21300;52.006;5.798;2022-12-10T06:39:41;0.10;97.90
35127;DHT22;21300;52.006;5.798;2022-12-10T06:42:07;0.10;97.90
35127;DHT22;21300;52.006;5.798;2022-12-10T06:44:33;0.10;98.00
35127;DHT22;21300;52.006;5.798;2022-12-10T06:46:59;0.10;98.00
35127;DHT22;21300;52.006;5.798;2022-12-10T06:49:24;0.10;98.00
35127;DHT22;21300;52.006;5.798;2022-12-10T06:51:50;0.10;98.00
35127;DHT22;21300;52.006;5.798;2022-12-10T06:54:16;0.10;98.00
35127;DHT22;21300;52.006;5.798;2022-12-10T06:56:41;0.10;98.00
35127;DHT22;21300;52.006;5.798;2022-12-10T06:59:07;0.10;98.00
35127;DHT22;21300;52.006;5.798;2022-12-10T07:01:32;0.10;98.00
35127;DHT22;21300;52.006;5.798;2022-12-10T07:04:17;0.10;98.00
35127;DHT22;21300;52.006;5.798;2022-12-10T07:06:42;0.10;98.00
35127;DHT22;21300;52.006;5.798;2022-12-10T07:09:08;0.10;98.00
35127;DHT22;21300;52.006;5.798;2022-12-10T07:11:35;0.10;98.00
35127;DHT22;21300;52.006;5.798;2022-12-10T07:14:01;0.10;98.00
35127;DHT22;21300;52.006;5.798;2022-12-10T07:16:29;0.10;98.00
35127;DHT22;21300;52.006;5.798;2022-12-10T07:18:58;0.10;98.00
35127;DHT22;21300;52.006;5.798;2022-12-10T07:21:32;0.10;98.00
35127;DHT22;21300;52.006;5.798;2022-12-10T07:24:02;0.10;98.00
35127;DHT22;21300;52.006;5.798;2022-12-10T07:26:30;0.10;98.00
35127;DHT22;21300;52.006;5.798;2022-12-10T07:28:58;0.10;98.40
35127;DHT22;21300;52.006;5.798;2022-12-10T07:31:24;0.10;98.10
35127;DHT22;21300;52.006;5.798;2022-12-10T07:33:51;0.10;98.00
35127;DHT22;21300;52.006;5.798;2022-12-10T07:36:18;0.10;98.00
35127;DHT22;21300;52.006;5.798;2022-12-10T07:38:43;0.10;97.90
35127;DHT22;21300;52.006;5.798;2022-12-10T07:41:10;0.10;97.90
35127;DHT22;21300;52.006;5.798;2022-12-10T07:43:38;0.10;97.90
35127;DHT22;21300;52.006;5.798;2022-12-10T07:46:19;0.10;97.90
35127;DHT22;21300;52.006;5.798;2022-12-10T07:48:45;0.10;97.90
35127;DHT22;21300;52.006;5.798;2022-12-10T07:51:12;0.10;98.20
35127;DHT22;21300;52.006;5.798;2022-12-10T07:53:38;0.10;97.90
35127;DHT22;21300;52.006;5.798;2022-12-10T07:56:04;0.10;97.90
35127;DHT22;21300;52.006;5.798;2022-12-10T07:58:30;0.10;97.90
35127;DHT22;21300;52.006;5.798;2022-12-10T08:00:56;0.10;97.90
35127;DHT22;21300;52.006;5.798;2022-12-10T08:03:21;0.10;97.90
35127;DHT22;21300;52.006;5.798;2022-12-10T08:05:47;0.20;98.00
35127;DHT22;21300;52.006;5.798;2022-12-10T08:08:13;0.20;98.00
35127;DHT22;21300;52.006;5.798;2022-12-10T08:10:39;0.10;97.90
35127;DHT22;21300;52.006;5.798;2022-12-10T08:13:05;0.20;98.00
35127;DHT22;21300;52.006;5.798;2022-12-10T08:15:31;0.20;98.30
35127;DHT22;21300;52.006;5.798;2022-12-10T08:17:57;0.20;98.00
35127;DHT22;21300;52.006;5.798;2022-12-10T08:20:24;0.20;98.00
35127;DHT22;21300;52.006;5.798;2022-12-10T08:22:50;0.10;97.90
35127;DHT22;21300;52.006;5.798;2022-12-10T08:25:16;0.10;97.90
35127;DHT22;21300;52.006;5.798;2022-12-10T08:27:42;0.10;97.90
35127;DHT22;21300;52.006;5.798;2022-12-10T08:30:08;0.20;98.00
35127;DHT22;21300;52.006;5.798;2022-12-10T08:32:34;0.20;97.90
35127;DHT22;21300;52.006;5.798;2022-12-10T08:34:59;0.20;98.00
35127;DHT22;21300;52.006;5.798;2022-12-10T08:37:25;0.10;98.00
35127;DHT22;21300;52.006;5.798;2022-12-10T08:39:50;0.10;98.00
35127;DHT22;21300;52.006;5.798;2022-12-10T08:42:16;0.10;98.00
35127;DHT22;21300;52.006;5.798;2022-12-10T08:44:42;0.10;98.00
35127;DHT22;21300;52.006;5.798;2022-12-10T08:47:07;0.20;98.00
35127;DHT22;21300;52.006;5.798;2022-12-10T08:49:33;0.20;98.00
35127;DHT22;21300;52.006;5.798;2022-12-10T08:51:59;0.20;98.00
35127;DHT22;21300;52.006;5.798;2022-12-10T08:54:24;0.20;98.00
35127;DHT22;21300;52.006;5.798;2022-12-10T08:56:50;0.20;98.00
35127;DHT22;21300;52.006;5.798;2022-12-10T08:59:16;0.20;98.00
35127;DHT22;21300;52.006;5.798;2022-12-10T09:01:42;0.10;98.00
35127;DHT22;21300;52.006;5.798;2022-12-10T09:04:07;0.20;98.00
35127;DHT22;21300;52.006;5.798;2022-12-10T09:06:33;0.20;98.00
35127;DHT22;21300;52.006;5.798;2022-12-10T09:08:58;0.20;98.00
35127;DHT22;21300;52.006;5.798;2022-12-10T09:11:27;0.20;98.00
35127;DHT22;21300;52.006;5.798;2022-12-10T09:13:53;0.20;97.90
35127;DHT22;21300;52.006;5.798;2022-12-10T09:16:19;0.20;98.00
35127;DHT22;21300;52.006;5.798;2022-12-10T09:18:45;0.20;98.00
35127;DHT22;21300;52.006;5.798;2022-12-10T09:21:14;0.20;98.00
35127;DHT22;21300;52.006;5.798;2022-12-10T09:23:59;0.20;98.00
35127;DHT22;21300;52.006;5.798;2022-12-10T09:26:25;0.20;98.00
35127;DHT22;21300;52.006;5.798;2022-12-10T09:28:51;0.20;97.90
35127;DHT22;21300;52.006;5.798;2022-12-10T09:31:19;0.20;97.90
35127;DHT22;21300;52.006;5.798;2022-12-10T09:33:45;0.20;98.00
35127;DHT22;21300;52.006;5.798;2022-12-10T09:36:12;0.20;98.00
35127;DHT22;21300;52.006;5.798;2022-12-10T09:38:40;0.20;98.00
35127;DHT22;21300;52.006;5.798;2022-12-10T09:46:48;0.20;98.00
35127;DHT22;21300;52.006;5.798;2022-12-10T09:49:29;0.20;98.00
35127;DHT22;21300;52.006;5.798;2022-12-10T09:52:00;0.20;98.00
35127;DHT22;21300;52.006;5.798;2022-12-10T09:54:31;0.20;98.00
35127;DHT22;21300;52.006;5.798;2022-12-10T09:56:57;0.20;98.00
35127;DHT22;21300;52.006;5.798;2022-12-10T09:59:57;0.30;98.00
35127;DHT22;21300;52.006;5.798;2022-12-10T10:02:31;0.20;98.00
35127;DHT22;21300;52.006;5.798;2022-12-10T10:07:44;0.20;98.00
35127;DHT22;21300;52.006;5.798;2022-12-10T10:10:23;0.20;98.00
35127;DHT22;21300;52.006;5.798;2022-12-10T10:12:56;0.20;98.00
35127;DHT22;21300;52.006;5.798;2022-12-10T10:15:30;0.20;98.00
35127;DHT22;21300;52.006;5.798;2022-12-10T10:18:04;0.20;98.00
35127;DHT22;21300;52.006;5.798;2022-12-10T10:20:35;0.20;98.00
35127;DHT22;21300;52.006;5.798;2022-12-10T10:23:00;0.20;98.00
35127;DHT22;21300;52.006;5.798;2022-12-10T10:25:26;0.20;98.00
35127;DHT22;21300;52.006;5.798;2022-12-10T10:27:52;0.30;98.00
35127;DHT22;21300;52.006;5.798;2022-12-10T10:30:21;0.30;98.00
35127;DHT22;21300;52.006;5.798;2022-12-10T10:32:55;0.30;98.00
35127;DHT22;21300;52.006;5.798;2022-12-10T10:37:49;0.30;98.00
35127;DHT22;21300;52.006;5.798;2022-12-10T10:40:23;0.30;98.00
35127;DHT22;21300;52.006;5.798;2022-12-10T10:42:53;0.30;98.00
35127;DHT22;21300;52.006;5.798;2022-12-10T10:48:15;0.30;98.00
35127;DHT22;21300;52.006;5.798;2022-12-10T10:50:47;0.30;98.00
35127;DHT22;21300;52.006;5.798;2022-12-10T10:53:43;0.30;98.00
35127;DHT22;21300;52.006;5.798;2022-12-10T10:56:16;0.30;98.00
35127;DHT22;21300;52.006;5.798;2022-12-10T11:04:13;0.30;98.00
35127;DHT22;21300;52.006;5.798;2022-12-10T11:06:40;0.30;98.00
35127;DHT22;21300;52.006;5.798;2022-12-10T11:09:06;0.30;98.00
35127;DHT22;21300;52.006;5.798;2022-12-10T11:11:39;0.40;98.10
35127;DHT22;21300;52.006;5.798;2022-12-10T11:14:30;0.40;98.10
35127;DHT22;21300;52.006;5.798;2022-12-10T11:20:14;0.30;98.10
35127;DHT22;21300;52.006;5.798;2022-12-10T11:22:52;0.30;98.10
35127;DHT22;21300;52.006;5.798;2022-12-10T11:25:27;0.40;98.10
35127;DHT22;21300;52.006;5.798;2022-12-10T11:28:07;0.40;98.10
35127;DHT22;21300;52.006;5.798;2022-12-10T11:30:42;0.40;98.10
35127;DHT22;21300;52.006;5.798;2022-12-10T11:33:31;0.40;98.10
35127;DHT22;21300;52.006;5.798;2022-12-10T11:42:15;0.40;98.10
35127;DHT22;21300;52.006;5.798;2022-12-10T11:45:15;0.40;98.10
35127;DHT22;21300;52.006;5.798;2022-12-10T11:47:59;0.40;98.10
35127;DHT22;21300;52.006;5.798;2022-12-10T11:50:50;0.40;98.10
35127;DHT22;21300;52.006;5.798;2022-12-10T11:56:12;0.40;98.10
35127;DHT22;21300;52.006;5.798;2022-12-10T12:04:26;0.40;98.10
35127;DHT22;21300;52.006;5.798;2022-12-10T12:07:11;0.40;98.10
35127;DHT22;21300;52.006;5.798;2022-12-10T12:15:22;0.50;98.20
35127;DHT22;21300;52.006;5.798;2022-12-10T12:17:54;0.40;98.20
35127;DHT22;21300;52.006;5.798;2022-12-10T12:20:41;0.40;98.20
35127;DHT22;21300;52.006;5.798;2022-12-10T12:23:22;0.50;98.20
35127;DHT22;21300;52.006;5.798;2022-12-10T12:25:57;0.50;98.20
35127;DHT22;21300;52.006;5.798;2022-12-10T12:28:31;0.50;98.20
35127;DHT22;21300;52.006;5.798;2022-12-10T12:31:06;0.50;98.20
35127;DHT22;21300;52.006;5.798;2022-12-10T12:36:11;0.50;98.20
35127;DHT22;21300;52.006;5.798;2022-12-10T12:41:27;0.50;98.20
35127;DHT22;21300;52.006;5.798;2022-12-10T12:44:26;0.50;98.20
35127;DHT22;21300;52.006;5.798;2022-12-10T12:46:56;0.50;98.20
35127;DHT22;21300;52.006;5.798;2022-12-10T12:49:29;0.50;98.20
35127;DHT22;21300;52.006;5.798;2022-12-10T12:52:04;0.50;98.20
35127;DHT22;21300;52.006;5.798;2022-12-10T12:54:32;0.50;98.20
35127;DHT22;21300;52.006;5.798;2022-12-10T12:57:06;0.50;98.20
35127;DHT22;21300;52.006;5.798;2022-12-10T12:59:45;0.50;98.20
35127;DHT22;21300;52.006;5.798;2022-12-10T13:02:48;0.50;98.20
35127;DHT22;21300;52.006;5.798;2022-12-10T13:05:29;0.60;98.20
35127;DHT22;21300;52.006;5.798;2022-12-10T13:13:28;0.60;98.20
35127;DHT22;21300;52.006;5.798;2022-12-10T13:15:54;0.60;98.20
35127;DHT22;21300;52.006;5.798;2022-12-10T13:21:31;0.60;98.20
35127;DHT22;21300;52.006;5.798;2022-12-10T13:24:09;0.60;98.30
35127;DHT22;21300;52.006;5.798;2022-12-10T13:26:35;0.60;98.20
35127;DHT22;21300;52.006;5.798;2022-12-10T13:29:22;0.60;98.20
35127;DHT22;21300;52.006;5.798;2022-12-10T13:31:57;0.60;98.20
35127;DHT22;21300;52.006;5.798;2022-12-10T13:34:36;0.60;98.20
35127;DHT22;21300;52.006;5.798;2022-12-10T13:37:15;0.60;98.20
35127;DHT22;21300;52.006;5.798;2022-12-10T13:39:53;0.60;98.20
35127;DHT22;21300;52.006;5.798;2022-12-10T13:42:31;0.60;98.20
35127;DHT22;21300;52.006;5.798;2022-12-10T13:47:51;0.70;98.20
35127;DHT22;21300;52.006;5.798;2022-12-10T13:50:18;0.60;98.20
35127;DHT22;21300;52.006;5.798;2022-12-10T14:00:47;0.60;98.20
35127;DHT22;21300;52.006;5.798;2022-12-10T14:08:34;0.70;98.20
35127;DHT22;21300;52.006;5.798;2022-12-10T14:11:02;0.70;98.20
35127;DHT22;21300;52.006;5.798;2022-12-10T14:13:41;0.70;98.20
35127;DHT22;21300;52.006;5.798;2022-12-10T14:16:11;0.70;98.20
35127;DHT22;21300;52.006;5.798;2022-12-10T14:18:42;0.70;98.20
35127;DHT22;21300;52.006;5.798;2022-12-10T14:21:10;0.70;98.20
35127;DHT22;21300;52.006;5.798;2022-12-10T14:23:47;0.70;98.20
35127;DHT22;21300;52.006;5.798;2022-12-10T14:28:46;0.70;98.20
35127;DHT22;21300;52.006;5.798;2022-12-10T14:31:15;0.70;98.20
35127;DHT22;21300;52.006;5.798;2022-12-10T14:33:45;0.70;98.20
35127;DHT22;21300;52.006;5.798;2022-12-10T14:36:16;0.70;98.20
35127;DHT22;21300;52.006;5.798;2022-12-10T14:38:45;0.70;98.20
35127;DHT22;21300;52.006;5.798;2022-12-10T14:41:15;0.70;98.20
35127;DHT22;21300;52.006;5.798;2022-12-10T14:43:42;0.70;98.50
35127;DHT22;21300;52.006;5.798;2022-12-10T14:46:16;0.70;98.20
35127;DHT22;21300;52.006;5.798;2022-12-10T14:48:42;0.70;98.20
35127;DHT22;21300;52.006;5.798;2022-12-10T14:51:17;0.70;98.20
35127;DHT22;21300;52.006;5.798;2022-12-10T14:53:45;0.70;98.20
35127;DHT22;21300;52.006;5.798;2022-12-10T14:56:17;0.70;98.20
35127;DHT22;21300;52.006;5.798;2022-12-10T14:58:50;0.70;98.20
35127;DHT22;21300;52.006;5.798;2022-12-10T15:01:42;0.60;98.20
35127;DHT22;21300;52.006;5.798;2022-12-10T15:04:14;0.70;98.30
35127;DHT22;21300;52.006;5.798;2022-12-10T15:06:41;0.70;98.20
35127;DHT22;21300;52.006;5.798;2022-12-10T15:09:18;0.70;98.20
35127;DHT22;21300;52.006;5.798;2022-12-10T15:11:45;0.60;98.20
35127;DHT22;21300;52.006;5.798;2022-12-10T15:14:17;0.60;98.30
35127;DHT22;21300;52.006;5.798;2022-12-10T15:16:44;0.60;98.30
35127;DHT22;21300;52.006;5.798;2022-12-10T15:21:48;0.60;98.30
35127;DHT22;21300;52.006;5.798;2022-12-10T15:24:20;0.70;98.30
35127;DHT22;21300;52.006;5.798;2022-12-10T15:26:50;0.60;98.20
35127;DHT22;21300;52.006;5.798;2022-12-10T15:31:48;0.70;98.30
35127;DHT22;21300;52.006;5.798;2022-12-10T15:34:14;0.70;98.20
35127;DHT22;21300;52.006;5.798;2022-12-10T15:37:04;0.70;98.30
35127;DHT22;21300;52.006;5.798;2022-12-10T15:39:43;0.60;98.50
35127;DHT22;21300;52.006;5.798;2022-12-10T15:42:40;0.70;98.20
35127;DHT22;21300;52.006;5.798;2022-12-10T15:45:36;0.70;98.30
35127;DHT22;21300;52.006;5.798;2022-12-10T15:48:07;0.70;98.20
35127;DHT22;21300;52.006;5.798;2022-12-10T15:50:33;0.70;98.20
35127;DHT22;21300;52.006;5.798;2022-12-10T15:53:34;0.70;98.30
35127;DHT22;21300;52.006;5.798;2022-12-10T15:56:00;0.60;98.20
35127;DHT22;21300;52.006;5.798;2022-12-10T15:58:25;0.70;98.20
35127;DHT22;21300;52.006;5.798;2022-12-10T16:00:51;0.70;98.20
35127;DHT22;21300;52.006;5.798;2022-12-10T16:03:17;0.70;98.20
35127;DHT22;21300;52.006;5.798;2022-12-10T16:05:44;0.70;98.20
35127;DHT22;21300;52.006;5.798;2022-12-10T16:08:27;0.70;98.20
35127;DHT22;21300;52.006;5.798;2022-12-10T16:10:59;0.70;98.20
35127;DHT22;21300;52.006;5.798;2022-12-10T16:13:29;0.70;98.20
35127;DHT22;21300;52.006;5.798;2022-12-10T16:16:04;0.70;98.20
35127;DHT22;21300;52.006;5.798;2022-12-10T16:18:30;0.70;98.20
35127;DHT22;21300;52.006;5.798;2022-12-10T16:20:56;0.70;98.20
35127;DHT22;21300;52.006;5.798;2022-12-10T16:23:21;0.70;98.20
35127;DHT22;21300;52.006;5.798;2022-12-10T16:25:47;0.70;98.20
35127;DHT22;21300;52.006;5.798;2022-12-10T16:28:22;0.70;98.20
35127;DHT22;21300;52.006;5.798;2022-12-10T16:30:50;0.70;98.20
35127;DHT22;21300;52.006;5.798;2022-12-10T16:33:18;0.70;98.20
35127;DHT22;21300;52.006;5.798;2022-12-10T16:35:45;0.60;98.20
35127;DHT22;21300;52.006;5.798;2022-12-10T16:38:11;0.70;98.20
35127;DHT22;21300;52.006;5.798;2022-12-10T16:40:38;0.70;98.20
35127;DHT22;21300;52.006;5.798;2022-12-10T16:43:04;0.70;98.20
35127;DHT22;21300;52.006;5.798;2022-12-10T16:45:34;0.70;98.20
35127;DHT22;21300;52.006;5.798;2022-12-10T16:48:01;0.60;98.20
35127;DHT22;21300;52.006;5.798;2022-12-10T16:50:26;0.60;98.20
35127;DHT22;21300;52.006;5.798;2022-12-10T16:52:54;0.70;98.20
35127;DHT22;21300;52.006;5.798;2022-12-10T16:55:22;0.70;98.20
35127;DHT22;21300;52.006;5.798;2022-12-10T16:57:48;0.70;98.20
35127;DHT22;21300;52.006;5.798;2022-12-10T17:00:20;0.70;98.20
35127;DHT22;21300;52.006;5.798;2022-12-10T17:02:47;0.70;98.20
35127;DHT22;21300;52.006;5.798;2022-12-10T17:05:27;0.70;98.20
35127;DHT22;21300;52.006;5.798;2022-12-10T17:07:53;0.70;98.20
35127;DHT22;21300;52.006;5.798;2022-12-10T17:10:19;0.70;98.20
35127;DHT22;21300;52.006;5.798;2022-12-10T17:13:05;0.70;98.20
35127;DHT22;21300;52.006;5.798;2022-12-10T17:15:31;0.70;98.20
35127;DHT22;21300;52.006;5.798;2022-12-10T17:17:56;0.70;98.20
35127;DHT22;21300;52.006;5.798;2022-12-10T17:20:22;0.70;98.20
35127;DHT22;21300;52.006;5.798;2022-12-10T17:22:50;0.70;98.20
35127;DHT22;21300;52.006;5.798;2022-12-10T17:25:16;0.70;98.20
35127;DHT22;21300;52.006;5.798;2022-12-10T17:27:42;0.70;98.20
35127;DHT22;21300;52.006;5.798;2022-12-10T17:30:13;0.70;98.20
35127;DHT22;21300;52.006;5.798;2022-12-10T17:32:39;0.60;98.20
35127;DHT22;21300;52.006;5.798;2022-12-10T17:35:05;0.70;98.20
35127;DHT22;21300;52.006;5.798;2022-12-10T17:37:34;0.70;98.20
35127;DHT22;21300;52.006;5.798;2022-12-10T17:40:00;0.70;98.20
35127;DHT22;21300;52.006;5.798;2022-12-10T17:42:25;0.70;98.20
35127;DHT22;21300;52.006;5.798;2022-12-10T17:44:51;0.70;98.20